sensor_id;sensor_type;location;lat;lon;timestamp;temperature;humidity
41876;DHT22;27555;50.808;4.402;2022-08-19T00:01:29;21.70;99.90
41876;DHT22;27555;50.808;4.402;2022-08-19T00:03:59;21.70;99.90
41876;DHT22;27555;50.808;4.402;2022-08-19T00:06:28;21.70;99.90
41876;DHT22;27555;50.808;4.402;2022-08-19T00:08:54;21.70;99.90
41876;DHT22;27555;50.808;4.402;2022-08-19T00:11:21;21.70;99.90
41876;DHT22;27555;50.808;4.402;2022-08-19T00:13:47;21.70;99.90
41876;DHT22;27555;50.808;4.402;2022-08-19T00:16:14;21.70;99.90
41876;DHT22;27555;50.808;4.402;2022-08-19T00:18:40;21.80;99.90
41876;DHT22;27555;50.808;4.402;2022-08-19T00:21:06;21.70;99.90
41876;DHT22;27555;50.808;4.402;2022-08-19T00:23:34;21.60;99.90
41876;DHT22;27555;50.808;4.402;2022-08-19T00:26:04;21.70;99.90
41876;DHT22;27555;50.808;4.402;2022-08-19T00:28:30;21.80;99.90
41876;DHT22;27555;50.808;4.402;2022-08-19T00:30:56;21.80;99.90
41876;DHT22;27555;50.808;4.402;2022-08-19T00:33:22;21.90;99.90
41876;DHT22;27555;50.808;4.402;2022-08-19T00:35:48;21.90;99.90
41876;DHT22;27555;50.808;4.402;2022-08-19T00:38:13;22.00;99.90
41876;DHT22;27555;50.808;4.402;2022-08-19T00:40:40;22.10;99.90
41876;DHT22;27555;50.808;4.402;2022-08-19T00:43:09;21.90;99.90
41876;DHT22;27555;50.808;4.402;2022-08-19T00:45:35;21.70;99.90
41876;DHT22;27555;50.808;4.402;2022-08-19T00:48:01;21.70;99.90
41876;DHT22;27555;50.808;4.402;2022-08-19T00:50:30;21.70;99.90
41876;DHT22;27555;50.808;4.402;2022-08-19T00:52:56;21.70;99.90
41876;DHT22;27555;50.808;4.402;2022-08-19T00:55:24;21.50;99.90
41876;DHT22;27555;50.808;4.402;2022-08-19T00:58:04;21.60;99.90
41876;DHT22;27555;50.808;4.402;2022-08-19T01:00:32;21.70;99.90
41876;DHT22;27555;50.808;4.402;2022-08-19T01:03:00;21.80;99.90
41876;DHT22;27555;50.808;4.402;2022-08-19T01:05:27;21.80;99.90
41876;DHT22;27555;50.808;4.402;2022-08-19T01:07:56;21.70;99.90
41876;DHT22;27555;50.808;4.402;2022-08-19T01:10:28;21.70;99.90
41876;DHT22;27555;50.808;4.402;2022-08-19T01:12:55;21.70;99.90
41876;DHT22;27555;50.808;4.402;2022-08-19T01:15:27;21.60;99.90
41876;DHT22;27555;50.808;4.402;2022-08-19T01:17:55;21.60;99.90
41876;DHT22;27555;50.808;4.402;2022-08-19T01:20:23;21.50;99.90
41876;DHT22;27555;50.808;4.402;2022-08-19T01:22:53;21.50;99.90
41876;DHT22;27555;50.808;4.402;2022-08-19T01:25:23;21.40;99.90
41876;DHT22;27555;50.808;4.402;2022-08-19T01:27:50;21.40;99.90
41876;DHT22;27555;50.808;4.402;2022-08-19T01:30:22;21.50;99.90
41876;DHT22;27555;50.808;4.402;2022-08-19T01:32:50;21.40;99.90
41876;DHT22;27555;50.808;4.402;2022-08-19T01:35:16;21.30;99.90
41876;DHT22;27555;50.808;4.402;2022-08-19T01:37:56;21.30;99.90
41876;DHT22;27555;50.808;4.402;2022-08-19T01:40:24;21.30;99.90
41876;DHT22;27555;50.808;4.402;2022-08-19T01:42:52;21.20;99.90
41876;DHT22;27555;50.808;4.402;2022-08-19T01:45:20;21.20;99.90
41876;DHT22;27555;50.808;4.402;2022-08-19T01:47:46;21.10;99.90
41876;DHT22;27555;50.808;4.402;2022-08-19T01:50:12;21.10;99.90
41876;DHT22;27555;50.808;4.402;2022-08-19T01:52:39;21.10;99.90
41876;DHT22;27555;50.808;4.402;2022-08-19T01:55:08;21.00;99.90
41876;DHT22;27555;50.808;4.402;2022-08-19T01:57:36;20.90;99.90
41876;DHT22;27555;50.808;4.402;2022-08-19T02:00:07;20.80;99.90
41876;DHT22;27555;50.808;4.402;2022-08-19T02:02:34;20.80;99.90
41876;DHT22;27555;50.808;4.402;2022-08-19T02:05:00;20.80;99.90
41876;DHT22;27555;50.808;4.402;2022-08-19T02:07:26;20.80;99.90
41876;DHT22;27555;50.808;4.402;2022-08-19T02:09:55;20.80;99.90
41876;DHT22;27555;50.808;4.402;2022-08-19T02:12:21;20.70;99.90
41876;DHT22;27555;50.808;4.402;2022-08-19T02:14:49;20.70;99.90
41876;DHT22;27555;50.808;4.402;2022-08-19T02:17:16;20.70;99.90
41876;DHT22;27555;50.808;4.402;2022-08-19T02:19:43;20.70;99.90
41876;DHT22;27555;50.808;4.402;2022-08-19T02:22:10;20.70;99.90
41876;DHT22;27555;50.808;4.402;2022-08-19T02:24:35;20.50;99.90
41876;DHT22;27555;50.808;4.402;2022-08-19T02:27:01;20.50;99.90
41876;DHT22;27555;50.808;4.402;2022-08-19T02:29:27;20.50;99.90
41876;DHT22;27555;50.808;4.402;2022-08-19T02:31:53;20.40;99.90
41876;DHT22;27555;50.808;4.402;2022-08-19T02:34:18;20.40;99.90
41876;DHT22;27555;50.808;4.402;2022-08-19T02:36:44;20.30;99.90
41876;DHT22;27555;50.808;4.402;2022-08-19T02:39:10;20.20;99.90
41876;DHT22;27555;50.808;4.402;2022-08-19T02:41:36;20.10;99.90
41876;DHT22;27555;50.808;4.402;2022-08-19T02:44:03;20.10;99.90
41876;DHT22;27555;50.808;4.402;2022-08-19T02:46:31;20.00;99.90
41876;DHT22;27555;50.808;4.402;2022-08-19T02:49:00;20.00;99.90
41876;DHT22;27555;50.808;4.402;2022-08-19T02:51:32;20.10;99.90
41876;DHT22;27555;50.808;4.402;2022-08-19T02:53:59;20.00;99.90
41876;DHT22;27555;50.808;4.402;2022-08-19T02:56:26;20.00;99.90
41876;DHT22;27555;50.808;4.402;2022-08-19T02:58:54;20.00;99.90
41876;DHT22;27555;50.808;4.402;2022-08-19T03:01:29;20.00;99.90
41876;DHT22;27555;50.808;4.402;2022-08-19T03:04:01;20.00;99.90
41876;DHT22;27555;50.808;4.402;2022-08-19T03:06:41;20.10;99.90
41876;DHT22;27555;50.808;4.402;2022-08-19T03:09:07;20.00;99.90
41876;DHT22;27555;50.808;4.402;2022-08-19T03:11:34;20.00;99.90
41876;DHT22;27555;50.808;4.402;2022-08-19T03:14:01;19.90;99.90
41876;DHT22;27555;50.808;4.402;2022-08-19T03:16:29;19.80;99.90
41876;DHT22;27555;50.808;4.402;2022-08-19T03:18:57;19.80;99.90
41876;DHT22;27555;50.808;4.402;2022-08-19T03:21:26;19.80;99.90
41876;DHT22;27555;50.808;4.402;2022-08-19T03:24:01;19.70;99.90
41876;DHT22;27555;50.808;4.402;2022-08-19T03:26:28;19.70;99.90
41876;DHT22;27555;50.808;4.402;2022-08-19T03:28:54;19.80;99.90
41876;DHT22;27555;50.808;4.402;2022-08-19T03:31:21;19.80;99.90
41876;DHT22;27555;50.808;4.402;2022-08-19T03:33:48;19.80;99.90
41876;DHT22;27555;50.808;4.402;2022-08-19T03:36:17;19.80;99.90
41876;DHT22;27555;50.808;4.402;2022-08-19T03:38:46;19.80;99.90
41876;DHT22;27555;50.808;4.402;2022-08-19T03:41:15;19.70;99.90
41876;DHT22;27555;50.808;4.402;2022-08-19T03:43:42;19.50;99.90
41876;DHT22;27555;50.808;4.402;2022-08-19T03:46:11;19.60;99.90
41876;DHT22;27555;50.808;4.402;2022-08-19T03:48:38;19.60;99.90
41876;DHT22;27555;50.808;4.402;2022-08-19T03:51:06;19.60;99.90
41876;DHT22;27555;50.808;4.402;2022-08-19T03:53:34;19.60;99.90
41876;DHT22;27555;50.808;4.402;2022-08-19T03:56:00;19.50;99.90
41876;DHT22;27555;50.808;4.402;2022-08-19T03:58:28;19.50;99.90
41876;DHT22;27555;50.808;4.402;2022-08-19T04:00:55;19.40;99.90
41876;DHT22;27555;50.808;4.402;2022-08-19T04:03:22;19.40;99.90
41876;DHT22;27555;50.808;4.402;2022-08-19T04:05:48;19.40;99.90
41876;DHT22;27555;50.808;4.402;2022-08-19T04:08:14;19.40;99.90
41876;DHT22;27555;50.808;4.402;2022-08-19T04:10:44;19.40;99.90
41876;DHT22;27555;50.808;4.402;2022-08-19T04:13:10;19.40;99.90
41876;DHT22;27555;50.808;4.402;2022-08-19T04:15:43;19.30;99.90
41876;DHT22;27555;50.808;4.402;2022-08-19T04:18:10;19.20;99.90
41876;DHT22;27555;50.808;4.402;2022-08-19T04:20:44;19.00;99.90
41876;DHT22;27555;50.808;4.402;2022-08-19T04:23:12;19.00;99.90
41876;DHT22;27555;50.808;4.402;2022-08-19T04:25:43;18.90;99.90
41876;DHT22;27555;50.808;4.402;2022-08-19T04:28:10;18.90;99.90
41876;DHT22;27555;50.808;4.402;2022-08-19T04:30:41;18.90;99.90
41876;DHT22;27555;50.808;4.402;2022-08-19T04:33:09;18.90;99.90
41876;DHT22;27555;50.808;4.402;2022-08-19T04:35:39;18.90;99.90
41876;DHT22;27555;50.808;4.402;2022-08-19T04:38:06;18.90;99.90
41876;DHT22;27555;50.808;4.402;2022-08-19T04:40:31;18.90;99.90
41876;DHT22;27555;50.808;4.402;2022-08-19T04:43:16;18.90;99.90
41876;DHT22;27555;50.808;4.402;2022-08-19T04:45:45;18.80;99.90
41876;DHT22;27555;50.808;4.402;2022-08-19T04:48:11;18.80;99.90
41876;DHT22;27555;50.808;4.402;2022-08-19T04:50:40;18.90;99.90
41876;DHT22;27555;50.808;4.402;2022-08-19T04:53:07;18.80;99.90
41876;DHT22;27555;50.808;4.402;2022-08-19T04:55:32;18.90;99.90
41876;DHT22;27555;50.808;4.402;2022-08-19T04:57:58;19.00;99.90
41876;DHT22;27555;50.808;4.402;2022-08-19T05:00:25;19.10;99.90
41876;DHT22;27555;50.808;4.402;2022-08-19T05:02:50;19.10;99.90
41876;DHT22;27555;50.808;4.402;2022-08-19T05:05:16;19.10;99.90
41876;DHT22;27555;50.808;4.402;2022-08-19T05:07:42;19.10;99.90
41876;DHT22;27555;50.808;4.402;2022-08-19T05:10:08;19.00;99.90
41876;DHT22;27555;50.808;4.402;2022-08-19T05:12:34;19.00;99.90
41876;DHT22;27555;50.808;4.402;2022-08-19T05:14:59;19.00;99.90
41876;DHT22;27555;50.808;4.402;2022-08-19T05:17:26;19.00;99.90
41876;DHT22;27555;50.808;4.402;2022-08-19T05:19:52;19.10;99.90
41876;DHT22;27555;50.808;4.402;2022-08-19T05:22:36;19.10;99.90
41876;DHT22;27555;50.808;4.402;2022-08-19T05:25:08;19.10;99.90
41876;DHT22;27555;50.808;4.402;2022-08-19T05:27:34;19.10;99.90
41876;DHT22;27555;50.808;4.402;2022-08-19T05:30:00;19.20;99.90
41876;DHT22;27555;50.808;4.402;2022-08-19T05:32:27;19.20;99.90
41876;DHT22;27555;50.808;4.402;2022-08-19T05:34:52;19.20;99.90
41876;DHT22;27555;50.808;4.402;2022-08-19T05:37:18;19.20;99.90
41876;DHT22;27555;50.808;4.402;2022-08-19T05:39:44;19.20;99.90
41876;DHT22;27555;50.808;4.402;2022-08-19T05:42:10;19.30;99.90
41876;DHT22;27555;50.808;4.402;2022-08-19T05:44:40;19.30;99.90
41876;DHT22;27555;50.808;4.402;2022-08-19T05:47:09;19.20;99.90
41876;DHT22;27555;50.808;4.402;2022-08-19T05:49:36;19.20;99.90
41876;DHT22;27555;50.808;4.402;2022-08-19T05:52:07;19.30;99.90
41876;DHT22;27555;50.808;4.402;2022-08-19T05:54:33;19.50;99.90
41876;DHT22;27555;50.808;4.402;2022-08-19T05:57:00;19.50;99.90
41876;DHT22;27555;50.808;4.402;2022-08-19T05:59:26;19.60;99.90
41876;DHT22;27555;50.808;4.402;2022-08-19T06:01:52;19.70;99.90
41876;DHT22;27555;50.808;4.402;2022-08-19T06:04:20;19.80;99.90
41876;DHT22;27555;50.808;4.402;2022-08-19T06:06:47;20.00;99.90
41876;DHT22;27555;50.808;4.402;2022-08-19T06:09:13;20.20;99.90
41876;DHT22;27555;50.808;4.402;2022-08-19T06:11:45;20.30;99.90
41876;DHT22;27555;50.808;4.402;2022-08-19T06:14:14;20.40;99.90
41876;DHT22;27555;50.808;4.402;2022-08-19T06:16:41;20.50;99.90
41876;DHT22;27555;50.808;4.402;2022-08-19T06:19:13;20.60;99.90
41876;DHT22;27555;50.808;4.402;2022-08-19T06:21:41;20.70;99.90
41876;DHT22;27555;50.808;4.402;2022-08-19T06:24:10;20.80;99.90
41876;DHT22;27555;50.808;4.402;2022-08-19T06:26:38;21.00;99.90
41876;DHT22;27555;50.808;4.402;2022-08-19T06:29:06;21.10;99.90
41876;DHT22;27555;50.808;4.402;2022-08-19T06:31:33;21.20;99.90
41876;DHT22;27555;50.808;4.402;2022-08-19T06:34:00;21.30;99.90
41876;DHT22;27555;50.808;4.402;2022-08-19T06:36:30;21.30;99.90
41876;DHT22;27555;50.808;4.402;2022-08-19T06:39:01;21.30;99.90
41876;DHT22;27555;50.808;4.402;2022-08-19T06:41:29;21.40;99.90
41876;DHT22;27555;50.808;4.402;2022-08-19T06:43:56;21.50;99.90
41876;DHT22;27555;50.808;4.402;2022-08-19T06:46:22;21.60;99.90
41876;DHT22;27555;50.808;4.402;2022-08-19T06:48:48;21.70;99.90
41876;DHT22;27555;50.808;4.402;2022-08-19T06:51:16;21.70;99.90
41876;DHT22;27555;50.808;4.402;2022-08-19T06:53:47;21.90;99.90
41876;DHT22;27555;50.808;4.402;2022-08-19T06:56:14;22.10;99.90
41876;DHT22;27555;50.808;4.402;2022-08-19T06:58:40;22.20;99.90
41876;DHT22;27555;50.808;4.402;2022-08-19T07:01:06;22.20;99.90
41876;DHT22;27555;50.808;4.402;2022-08-19T07:03:34;22.40;99.90
41876;DHT22;27555;50.808;4.402;2022-08-19T07:06:09;22.40;99.90
41876;DHT22;27555;50.808;4.402;2022-08-19T07:08:36;22.60;99.90
41876;DHT22;27555;50.808;4.402;2022-08-19T07:11:09;22.70;99.90
41876;DHT22;27555;50.808;4.402;2022-08-19T07:13:35;22.60;99.90
41876;DHT22;27555;50.808;4.402;2022-08-19T07:16:09;22.60;99.90
41876;DHT22;27555;50.808;4.402;2022-08-19T07:18:36;22.30;99.90
41876;DHT22;27555;50.808;4.402;2022-08-19T07:21:10;22.20;99.90
41876;DHT22;27555;50.808;4.402;2022-08-19T07:23:36;22.20;99.90
41876;DHT22;27555;50.808;4.402;2022-08-19T07:26:13;22.20;99.90
41876;DHT22;27555;50.808;4.402;2022-08-19T07:28:40;22.30;99.90
41876;DHT22;27555;50.808;4.402;2022-08-19T07:31:06;22.40;99.90
41876;DHT22;27555;50.808;4.402;2022-08-19T07:33:33;22.20;99.90
41876;DHT22;27555;50.808;4.402;2022-08-19T07:36:01;22.10;99.90
41876;DHT22;27555;50.808;4.402;2022-08-19T07:38:27;22.10;99.90
41876;DHT22;27555;50.808;4.402;2022-08-19T07:40:53;22.10;99.90
41876;DHT22;27555;50.808;4.402;2022-08-19T07:43:19;22.10;99.90
41876;DHT22;27555;50.808;4.402;2022-08-19T07:45:46;22.10;99.90
41876;DHT22;27555;50.808;4.402;2022-08-19T07:48:12;22.10;99.90
41876;DHT22;27555;50.808;4.402;2022-08-19T07:50:37;22.10;99.90
41876;DHT22;27555;50.808;4.402;2022-08-19T07:53:03;22.20;99.90
41876;DHT22;27555;50.808;4.402;2022-08-19T07:55:29;22.50;99.90
41876;DHT22;27555;50.808;4.402;2022-08-19T07:57:55;22.90;99.90
41876;DHT22;27555;50.808;4.402;2022-08-19T08:00:21;23.00;99.90
41876;DHT22;27555;50.808;4.402;2022-08-19T08:02:46;23.00;99.90
41876;DHT22;27555;50.808;4.402;2022-08-19T08:05:12;22.90;99.90
41876;DHT22;27555;50.808;4.402;2022-08-19T08:07:56;23.00;99.90
41876;DHT22;27555;50.808;4.402;2022-08-19T08:10:40;23.10;99.90
41876;DHT22;27555;50.808;4.402;2022-08-19T08:13:07;22.80;99.90
41876;DHT22;27555;50.808;4.402;2022-08-19T08:15:33;22.90;99.90
41876;DHT22;27555;50.808;4.402;2022-08-19T08:17:58;23.00;99.90
41876;DHT22;27555;50.808;4.402;2022-08-19T08:20:24;23.20;99.90
41876;DHT22;27555;50.808;4.402;2022-08-19T08:22:49;23.30;99.90
41876;DHT22;27555;50.808;4.402;2022-08-19T08:25:35;23.40;99.90
41876;DHT22;27555;50.808;4.402;2022-08-19T08:28:01;23.60;99.90
41876;DHT22;27555;50.808;4.402;2022-08-19T08:30:29;23.60;99.90
41876;DHT22;27555;50.808;4.402;2022-08-19T08:32:55;23.60;99.90
41876;DHT22;27555;50.808;4.402;2022-08-19T08:35:22;23.50;99.90
41876;DHT22;27555;50.808;4.402;2022-08-19T08:37:50;23.60;99.90
41876;DHT22;27555;50.808;4.402;2022-08-19T08:43:46;23.10;99.90
41876;DHT22;27555;50.808;4.402;2022-08-19T08:46:07;23.20;99.90
41876;DHT22;27555;50.808;4.402;2022-08-19T08:48:54;23.30;99.90
41876;DHT22;27555;50.808;4.402;2022-08-19T08:51:42;23.50;99.90
41876;DHT22;27555;50.808;4.402;2022-08-19T08:54:12;23.50;99.90
41876;DHT22;27555;50.808;4.402;2022-08-19T08:56:41;23.60;99.90
41876;DHT22;27555;50.808;4.402;2022-08-19T08:59:20;23.60;99.90
41876;DHT22;27555;50.808;4.402;2022-08-19T09:01:47;23.70;99.90
41876;DHT22;27555;50.808;4.402;2022-08-19T09:04:13;23.70;99.90
41876;DHT22;27555;50.808;4.402;2022-08-19T09:07:06;23.70;99.90
41876;DHT22;27555;50.808;4.402;2022-08-19T09:09:39;23.50;99.90
41876;DHT22;27555;50.808;4.402;2022-08-19T09:14:52;23.30;99.90
41876;DHT22;27555;50.808;4.402;2022-08-19T09:17:21;23.40;99.90
41876;DHT22;27555;50.808;4.402;2022-08-19T09:20:02;23.40;99.90
41876;DHT22;27555;50.808;4.402;2022-08-19T09:22:32;23.40;99.90
41876;DHT22;27555;50.808;4.402;2022-08-19T09:24:58;23.60;99.90
41876;DHT22;27555;50.808;4.402;2022-08-19T09:27:28;23.50;99.90
41876;DHT22;27555;50.808;4.402;2022-08-19T09:29:54;23.70;99.90
41876;DHT22;27555;50.808;4.402;2022-08-19T09:32:21;23.40;99.90
41876;DHT22;27555;50.808;4.402;2022-08-19T09:34:47;23.50;99.90
41876;DHT22;27555;50.808;4.402;2022-08-19T09:37:13;23.60;99.90
41876;DHT22;27555;50.808;4.402;2022-08-19T09:39:40;23.70;99.90
41876;DHT22;27555;50.808;4.402;2022-08-19T09:42:07;23.70;99.90
41876;DHT22;27555;50.808;4.402;2022-08-19T09:44:38;23.70;99.90
41876;DHT22;27555;50.808;4.402;2022-08-19T09:47:04;23.80;99.90
41876;DHT22;27555;50.808;4.402;2022-08-19T09:49:29;24.00;99.90
41876;DHT22;27555;50.808;4.402;2022-08-19T09:51:56;23.90;99.90
41876;DHT22;27555;50.808;4.402;2022-08-19T09:54:22;24.00;99.90
41876;DHT22;27555;50.808;4.402;2022-08-19T09:56:49;23.80;99.90
41876;DHT22;27555;50.808;4.402;2022-08-19T09:59:15;23.90;99.90
41876;DHT22;27555;50.808;4.402;2022-08-19T10:01:41;23.90;99.90
41876;DHT22;27555;50.808;4.402;2022-08-19T10:04:06;23.80;99.90
41876;DHT22;27555;50.808;4.402;2022-08-19T10:06:37;23.80;99.90
41876;DHT22;27555;50.808;4.402;2022-08-19T10:09:04;24.00;99.90
41876;DHT22;27555;50.808;4.402;2022-08-19T10:11:32;24.20;99.90
41876;DHT22;27555;50.808;4.402;2022-08-19T10:14:00;24.40;99.90
41876;DHT22;27555;50.808;4.402;2022-08-19T10:16:26;24.50;99.90
41876;DHT22;27555;50.808;4.402;2022-08-19T10:18:53;24.60;99.90
41876;DHT22;27555;50.808;4.402;2022-08-19T10:21:20;24.60;99.90
41876;DHT22;27555;50.808;4.402;2022-08-19T10:23:48;24.40;99.90
41876;DHT22;27555;50.808;4.402;2022-08-19T10:26:19;24.20;99.90
41876;DHT22;27555;50.808;4.402;2022-08-19T10:28:46;24.20;99.90
41876;DHT22;27555;50.808;4.402;2022-08-19T10:31:15;24.40;99.90
41876;DHT22;27555;50.808;4.402;2022-08-19T10:33:42;24.60;99.90
41876;DHT22;27555;50.808;4.402;2022-08-19T10:36:12;24.80;99.90
41876;DHT22;27555;50.808;4.402;2022-08-19T10:38:41;24.80;99.90
41876;DHT22;27555;50.808;4.402;2022-08-19T10:41:18;24.90;99.90
41876;DHT22;27555;50.808;4.402;2022-08-19T10:43:44;25.10;99.90
41876;DHT22;27555;50.808;4.402;2022-08-19T10:46:14;25.20;99.90
41876;DHT22;27555;50.808;4.402;2022-08-19T10:48:40;25.10;99.90
41876;DHT22;27555;50.808;4.402;2022-08-19T10:51:06;25.00;99.90
41876;DHT22;27555;50.808;4.402;2022-08-19T10:53:51;24.90;99.90
41876;DHT22;27555;50.808;4.402;2022-08-19T10:56:18;24.90;99.90
41876;DHT22;27555;50.808;4.402;2022-08-19T10:59:03;24.80;99.90
41876;DHT22;27555;50.808;4.402;2022-08-19T11:01:29;24.80;99.90
41876;DHT22;27555;50.808;4.402;2022-08-19T11:03:56;24.80;99.90
41876;DHT22;27555;50.808;4.402;2022-08-19T11:06:25;25.00;99.90
41876;DHT22;27555;50.808;4.402;2022-08-19T11:08:54;25.20;99.90
41876;DHT22;27555;50.808;4.402;2022-08-19T11:11:20;25.20;99.90
41876;DHT22;27555;50.808;4.402;2022-08-19T11:13:48;24.90;99.90
41876;DHT22;27555;50.808;4.402;2022-08-19T11:16:20;24.40;99.90
41876;DHT22;27555;50.808;4.402;2022-08-19T11:18:49;24.30;99.90
41876;DHT22;27555;50.808;4.402;2022-08-19T11:21:31;24.60;99.90
41876;DHT22;27555;50.808;4.402;2022-08-19T11:24:04;24.60;99.90
41876;DHT22;27555;50.808;4.402;2022-08-19T11:26:32;24.70;99.90
41876;DHT22;27555;50.808;4.402;2022-08-19T11:28:59;24.80;99.90
41876;DHT22;27555;50.808;4.402;2022-08-19T11:31:31;24.70;99.90
41876;DHT22;27555;50.808;4.402;2022-08-19T11:33:58;24.60;99.90
41876;DHT22;27555;50.808;4.402;2022-08-19T11:36:25;24.40;99.90
41876;DHT22;27555;50.808;4.402;2022-08-19T11:38:51;24.40;99.90
41876;DHT22;27555;50.808;4.402;2022-08-19T11:41:19;24.60;99.90
41876;DHT22;27555;50.808;4.402;2022-08-19T11:43:45;24.80;99.90
41876;DHT22;27555;50.808;4.402;2022-08-19T11:46:13;24.90;99.90
41876;DHT22;27555;50.808;4.402;2022-08-19T11:48:40;25.00;99.90
41876;DHT22;27555;50.808;4.402;2022-08-19T11:51:09;25.20;99.90
41876;DHT22;27555;50.808;4.402;2022-08-19T11:53:36;25.20;99.90
41876;DHT22;27555;50.808;4.402;2022-08-19T11:56:02;25.10;99.90
41876;DHT22;27555;50.808;4.402;2022-08-19T11:58:28;25.00;99.90
41876;DHT22;27555;50.808;4.402;2022-08-19T12:00:57;25.00;99.90
41876;DHT22;27555;50.808;4.402;2022-08-19T12:03:22;25.30;99.90
41876;DHT22;27555;50.808;4.402;2022-08-19T12:05:48;25.70;99.90
41876;DHT22;27555;50.808;4.402;2022-08-19T12:08:15;26.10;99.90
41876;DHT22;27555;50.808;4.402;2022-08-19T12:10:41;26.50;99.90
41876;DHT22;27555;50.808;4.402;2022-08-19T12:13:09;26.90;99.90
41876;DHT22;27555;50.808;4.402;2022-08-19T12:15:37;27.50;99.90
41876;DHT22;27555;50.808;4.402;2022-08-19T12:18:04;27.60;99.60
41876;DHT22;27555;50.808;4.402;2022-08-19T12:20:30;27.40;99.50
41876;DHT22;27555;50.808;4.402;2022-08-19T12:22:55;27.30;99.20
41876;DHT22;27555;50.808;4.402;2022-08-19T12:25:21;27.20;99.20
41876;DHT22;27555;50.808;4.402;2022-08-19T12:27:47;27.30;99.20
41876;DHT22;27555;50.808;4.402;2022-08-19T12:30:13;27.30;99.00
41876;DHT22;27555;50.808;4.402;2022-08-19T12:32:39;27.40;98.90
41876;DHT22;27555;50.808;4.402;2022-08-19T12:35:06;27.40;98.70
41876;DHT22;27555;50.808;4.402;2022-08-19T12:37:32;27.20;98.60
41876;DHT22;27555;50.808;4.402;2022-08-19T12:39:58;26.90;99.10
41876;DHT22;27555;50.808;4.402;2022-08-19T12:42:24;26.80;99.10
41876;DHT22;27555;50.808;4.402;2022-08-19T12:44:49;26.80;99.20
41876;DHT22;27555;50.808;4.402;2022-08-19T12:47:15;26.80;99.20
41876;DHT22;27555;50.808;4.402;2022-08-19T12:49:42;27.00;99.00
41876;DHT22;27555;50.808;4.402;2022-08-19T12:52:10;27.10;98.70
41876;DHT22;27555;50.808;4.402;2022-08-19T12:54:36;27.20;98.30
41876;DHT22;27555;50.808;4.402;2022-08-19T12:57:06;27.20;98.30
41876;DHT22;27555;50.808;4.402;2022-08-19T12:59:33;27.20;98.10
41876;DHT22;27555;50.808;4.402;2022-08-19T13:02:00;27.00;98.40
41876;DHT22;27555;50.808;4.402;2022-08-19T13:04:25;27.10;98.50
41876;DHT22;27555;50.808;4.402;2022-08-19T13:06:51;27.20;98.00
41876;DHT22;27555;50.808;4.402;2022-08-19T13:09:17;27.10;98.00
41876;DHT22;27555;50.808;4.402;2022-08-19T13:11:42;27.20;98.10
41876;DHT22;27555;50.808;4.402;2022-08-19T13:14:09;26.70;98.40
41876;DHT22;27555;50.808;4.402;2022-08-19T13:16:36;26.70;98.70
41876;DHT22;27555;50.808;4.402;2022-08-19T13:19:03;26.70;98.70
41876;DHT22;27555;50.808;4.402;2022-08-19T13:21:30;27.00;98.30
41876;DHT22;27555;50.808;4.402;2022-08-19T13:23:56;27.10;98.10
41876;DHT22;27555;50.808;4.402;2022-08-19T13:26:22;27.10;97.80
41876;DHT22;27555;50.808;4.402;2022-08-19T13:28:48;26.90;98.40
41876;DHT22;27555;50.808;4.402;2022-08-19T13:31:34;27.10;98.10
41876;DHT22;27555;50.808;4.402;2022-08-19T13:34:25;27.10;97.70
41876;DHT22;27555;50.808;4.402;2022-08-19T13:36:52;27.20;97.60
41876;DHT22;27555;50.808;4.402;2022-08-19T13:39:18;27.50;97.30
41876;DHT22;27555;50.808;4.402;2022-08-19T13:41:45;27.40;97.20
41876;DHT22;27555;50.808;4.402;2022-08-19T13:44:16;27.50;97.40
41876;DHT22;27555;50.808;4.402;2022-08-19T13:46:44;27.40;97.40
41876;DHT22;27555;50.808;4.402;2022-08-19T13:49:11;27.60;97.40
41876;DHT22;27555;50.808;4.402;2022-08-19T13:51:39;27.60;97.10
41876;DHT22;27555;50.808;4.402;2022-08-19T13:54:08;27.60;96.90
41876;DHT22;27555;50.808;4.402;2022-08-19T13:56:35;27.70;96.80
41876;DHT22;27555;50.808;4.402;2022-08-19T13:59:04;27.50;97.00
41876;DHT22;27555;50.808;4.402;2022-08-19T14:01:31;27.30;97.20
41876;DHT22;27555;50.808;4.402;2022-08-19T14:03:57;27.00;97.70
41876;DHT22;27555;50.808;4.402;2022-08-19T14:06:22;26.80;97.90
41876;DHT22;27555;50.808;4.402;2022-08-19T14:08:48;26.90;97.80
41876;DHT22;27555;50.808;4.402;2022-08-19T14:11:14;27.00;97.80
41876;DHT22;27555;50.808;4.402;2022-08-19T14:13:40;27.10;97.80
41876;DHT22;27555;50.808;4.402;2022-08-19T14:16:09;27.00;98.20
41876;DHT22;27555;50.808;4.402;2022-08-19T14:18:35;26.80;98.60
41876;DHT22;27555;50.808;4.402;2022-08-19T14:21:01;26.60;99.20
41876;DHT22;27555;50.808;4.402;2022-08-19T14:23:26;26.40;99.90
41876;DHT22;27555;50.808;4.402;2022-08-19T14:25:52;26.60;99.90
41876;DHT22;27555;50.808;4.402;2022-08-19T14:28:17;26.30;99.90
41876;DHT22;27555;50.808;4.402;2022-08-19T14:30:43;26.40;99.90
41876;DHT22;27555;50.808;4.402;2022-08-19T14:33:10;26.30;99.90
41876;DHT22;27555;50.808;4.402;2022-08-19T14:35:36;26.00;99.90
41876;DHT22;27555;50.808;4.402;2022-08-19T14:38:04;25.70;99.90
41876;DHT22;27555;50.808;4.402;2022-08-19T14:40:31;25.30;99.90
41876;DHT22;27555;50.808;4.402;2022-08-19T14:43:01;25.10;99.90
41876;DHT22;27555;50.808;4.402;2022-08-19T14:45:31;24.80;99.90
41876;DHT22;27555;50.808;4.402;2022-08-19T14:47:57;24.70;99.90
41876;DHT22;27555;50.808;4.402;2022-08-19T14:50:24;24.70;99.90
41876;DHT22;27555;50.808;4.402;2022-08-19T14:53:01;24.70;99.90
41876;DHT22;27555;50.808;4.402;2022-08-19T14:55:29;24.70;99.90
41876;DHT22;27555;50.808;4.402;2022-08-19T14:57:56;24.60;99.90
41876;DHT22;27555;50.808;4.402;2022-08-19T15:00:22;24.70;99.90
41876;DHT22;27555;50.808;4.402;2022-08-19T15:02:49;25.10;99.90
41876;DHT22;27555;50.808;4.402;2022-08-19T15:05:14;25.30;99.90
41876;DHT22;27555;50.808;4.402;2022-08-19T15:07:42;25.60;99.90
41876;DHT22;27555;50.808;4.402;2022-08-19T15:10:10;25.60;99.90
41876;DHT22;27555;50.808;4.402;2022-08-19T15:12:37;25.70;99.90
41876;DHT22;27555;50.808;4.402;2022-08-19T15:15:07;25.60;99.90
41876;DHT22;27555;50.808;4.402;2022-08-19T15:17:33;25.40;99.90
41876;DHT22;27555;50.808;4.402;2022-08-19T15:19:58;25.30;99.90
41876;DHT22;27555;50.808;4.402;2022-08-19T15:22:24;25.20;99.90
41876;DHT22;27555;50.808;4.402;2022-08-19T15:24:50;25.20;99.90
41876;DHT22;27555;50.808;4.402;2022-08-19T15:27:15;25.30;99.90
41876;DHT22;27555;50.808;4.402;2022-08-19T15:29:41;25.20;99.90
41876;DHT22;27555;50.808;4.402;2022-08-19T15:32:07;25.40;99.90
41876;DHT22;27555;50.808;4.402;2022-08-19T15:34:34;25.60;99.90
41876;DHT22;27555;50.808;4.402;2022-08-19T15:37:00;25.60;99.90
41876;DHT22;27555;50.808;4.402;2022-08-19T15:39:25;25.80;99.90
41876;DHT22;27555;50.808;4.402;2022-08-19T15:41:52;25.60;99.90